בריסל, Belgium

06:43 PM CET , פברואר 09, 2016 (GMT +0100)
Berg | | Change Station
CLOSE
Current Station
תחנות מטאורולוגיות אישיות
Location: Kampenhout, VLAAMS BRABANT
Elevation: 54 ft
Nearby Weather Stations

Elev 54 ft 50.93 °N, 4.53 °E | Updated 59 seconds ago

Mostly Cloudy
מעונן ברובו
40.3 ° F
Feels Like 34 ° F
צפ
11.0
רוח משתנה רוח from דר-מע
Gusts 12.0 מייל/שעה

היום
High -- | Low -- ° F
--% Chance of Precip.
אתמול
High -- | Low -- ° F
Precip. -- אינץ
לחץ 29.12 אינץ
ראות 6.2 מיילים
עננים Few 400 ft
מעונן ברובו 700 ft
מעונן ברובו 1500 ft
רוח צוננת 34 ° F
טמפ עיבוי 39 ° F
לחות 94%
גשם 0.66 אינץ
עומק השלג Not available.
8:06 AM 5:46 PM
מולד הירח, 2% visible
METAR EBBE 091725Z 25012KT 9999 FEW004 BKN007 BKN015 03/02 Q0986 GRN GRN BECMG WHT
לחץ 29.12 אינץ
ראות 6.2 מיילים
עננים Few 400 ft
מעונן ברובו 700 ft
מעונן ברובו 1500 ft
רוח צוננת 34 ° F
טמפ עיבוי 39 ° F
לחות 94%
גשם 0.66 אינץ
עומק השלג Not available.
8:06 AM 5:46 PM
מולד הירח, 2% visible
METAR EBBE 091725Z 25012KT 9999 FEW004 BKN007 BKN015 03/02 Q0986 GRN GRN BECMG WHT

10-Day Weather Forecast

Almanac

אסטרונומיה

Feb. 09, 2016 Rise Set
Actual Time
Civil Twilight
Nautical Twilight
Astronomical Twilight
ירח
Length Of Visible Light
אורך היום
Tomorrow will be .
, % of the Moon is Illuminated

Today's Extremes

Country Highs Country Lows

Community

WunderPhotos

Upload Photos

1,891,650 photos uploaded!

WunderBlog® & News

Nearby

איכות האוויר

  איכות האוויר אינדקס איכות האוויר חומר מזהם
Not available.

עומק שלג

Station Depth Elevation

Earthquake Activity

עיר Distance Mag. Time & Date
Minimum magnitude displayed is 2.5.

Coastal Water Temperatures

מקום טמפרטורה

Stations

Nearby Weather Stations

Station Location טמפ רוח צוננת טמפ עיבוי לחות רוח Precip. Elev מעודכן Type